createdAt,value
2022-12-29T00:01:19.315Z,1.00
2022-12-29T00:03:48.372Z,0.90
2022-12-29T00:06:16.969Z,0.90
2022-12-29T00:08:45.247Z,0.90
2022-12-29T00:11:15.259Z,0.90
2022-12-29T00:14:03.093Z,0.90
2022-12-29T00:16:32.903Z,0.90
2022-12-29T00:19:01.401Z,0.90
2022-12-29T00:21:47.876Z,0.90
2022-12-29T00:24:36.689Z,0.90
2022-12-29T00:27:31.722Z,0.90
2022-12-29T00:30:18.927Z,0.90
2022-12-29T00:33:04.583Z,0.90
2022-12-29T00:35:40.634Z,0.90
2022-12-29T00:38:28.361Z,0.80
2022-12-29T00:41:14.276Z,0.80
2022-12-29T00:44:00.115Z,0.80
2022-12-29T00:46:30.749Z,0.80
2022-12-29T00:49:17.968Z,0.80
2022-12-29T00:51:46.529Z,0.70
2022-12-29T00:54:15.497Z,0.70
2022-12-29T00:56:43.888Z,0.70
2022-12-29T00:59:13.507Z,0.60
2022-12-29T01:01:43.896Z,0.60
2022-12-29T01:04:13.122Z,0.60
2022-12-29T01:06:42.974Z,0.60
2022-12-29T01:09:28.649Z,0.60
2022-12-29T01:11:57.297Z,0.60
2022-12-29T01:14:26.259Z,0.60
2022-12-29T01:16:57.051Z,0.60
2022-12-29T01:19:25.918Z,0.60
2022-12-29T01:21:54.438Z,0.60
2022-12-29T01:24:23.567Z,0.70
2022-12-29T01:26:51.924Z,0.70
2022-12-29T01:29:20.528Z,0.70
2022-12-29T01:31:50.855Z,0.70
2022-12-29T01:34:20.877Z,0.70
2022-12-29T01:36:49.240Z,0.70
2022-12-29T01:39:17.997Z,0.70
2022-12-29T01:41:46.370Z,0.80
2022-12-29T01:44:56.078Z,0.80
2022-12-29T01:47:35.847Z,0.80
2022-12-29T01:50:10.454Z,0.80
2022-12-29T01:52:42.683Z,0.80
2022-12-29T01:55:12.880Z,0.80
2022-12-29T01:57:46.352Z,0.80
2022-12-29T02:00:17.944Z,0.80
2022-12-29T02:02:52.964Z,0.80
2022-12-29T02:05:29.509Z,0.80
2022-12-29T02:07:58.091Z,0.90
2022-12-29T02:10:30.312Z,0.90
2022-12-29T02:12:58.972Z,0.80
2022-12-29T02:15:43.866Z,0.80
2022-12-29T02:18:27.839Z,0.80
2022-12-29T02:21:41.702Z,0.80
2022-12-29T02:24:39.309Z,0.80
2022-12-29T02:27:38.722Z,0.80
2022-12-29T02:30:20.271Z,0.80
2022-12-29T02:32:56.650Z,0.80
2022-12-29T02:35:35.041Z,0.80
2022-12-29T02:38:14.173Z,0.80
2022-12-29T02:40:50.518Z,0.80
2022-12-29T02:43:28.347Z,0.80
2022-12-29T02:46:00.709Z,0.80
2022-12-29T02:48:34.224Z,0.80
2022-12-29T02:51:05.614Z,0.80
2022-12-29T02:53:54.043Z,0.80
2022-12-29T02:56:23.207Z,0.80
2022-12-29T02:58:51.600Z,0.80
2022-12-29T03:01:31.726Z,0.90
2022-12-29T03:04:22.189Z,0.90
2022-12-29T03:06:59.976Z,0.90
2022-12-29T03:09:38.619Z,0.90
2022-12-29T03:12:18.409Z,0.90
2022-12-29T03:15:14.647Z,0.90
2022-12-29T03:17:57.688Z,0.90
2022-12-29T03:20:35.238Z,0.90
2022-12-29T03:23:05.936Z,0.90
2022-12-29T03:25:41.328Z,0.90
2022-12-29T03:28:17.219Z,0.90
2022-12-29T03:30:49.421Z,0.90
2022-12-29T03:33:25.036Z,0.90
2022-12-29T03:36:03.779Z,0.90
2022-12-29T03:38:37.933Z,0.90
2022-12-29T03:41:10.056Z,0.90
2022-12-29T03:43:38.432Z,0.90
2022-12-29T03:46:07.538Z,0.90
2022-12-29T03:48:36.820Z,0.90
2022-12-29T03:51:07.096Z,0.90
2022-12-29T03:53:35.986Z,0.90
2022-12-29T03:56:05.346Z,0.90
2022-12-29T03:58:35.271Z,0.90
2022-12-29T04:01:12.674Z,0.90
2022-12-29T04:03:41.355Z,1.00
2022-12-29T04:06:11.179Z,1.00
2022-12-29T04:08:50.872Z,1.00
2022-12-29T04:11:19.432Z,1.00
2022-12-29T04:13:47.967Z,1.00
2022-12-29T04:16:20.535Z,1.10
2022-12-29T04:18:49.315Z,1.00
2022-12-29T04:21:19.244Z,1.10
2022-12-29T04:23:47.830Z,1.10
2022-12-29T04:26:18.303Z,1.10
2022-12-29T04:29:02.094Z,1.10
2022-12-29T04:31:44.373Z,1.10
2022-12-29T04:34:13.141Z,1.10
2022-12-29T04:36:42.888Z,1.10
2022-12-29T04:39:11.298Z,1.10
2022-12-29T04:41:41.342Z,1.10
2022-12-29T04:44:14.280Z,1.10
2022-12-29T04:47:05.492Z,1.10
2022-12-29T04:50:06.782Z,1.10
2022-12-29T04:52:43.032Z,1.10
2022-12-29T04:55:13.106Z,1.10
2022-12-29T04:57:42.416Z,1.10
2022-12-29T05:00:13.774Z,1.10
2022-12-29T05:02:42.463Z,1.10
2022-12-29T05:05:11.333Z,1.10
2022-12-29T05:07:45.296Z,1.10
2022-12-29T05:10:13.851Z,1.10
2022-12-29T05:12:42.886Z,1.10
2022-12-29T05:15:13.035Z,1.10
2022-12-29T05:17:41.427Z,1.20
2022-12-29T05:20:11.622Z,1.10
2022-12-29T05:22:40.176Z,1.10
2022-12-29T05:25:11.375Z,1.10
2022-12-29T05:27:59.949Z,1.20
2022-12-29T05:30:49.841Z,1.20
2022-12-29T05:33:20.484Z,1.10
2022-12-29T05:35:50.839Z,1.10
2022-12-29T05:38:20.457Z,1.10
2022-12-29T05:40:50.438Z,1.10
2022-12-29T05:43:54.082Z,1.10
2022-12-29T05:46:40.931Z,1.10
2022-12-29T05:49:17.725Z,1.10
2022-12-29T05:51:56.752Z,1.10
2022-12-29T05:54:25.216Z,1.10
2022-12-29T05:56:55.476Z,1.10
2022-12-29T05:59:24.416Z,1.10
2022-12-29T06:01:55.110Z,1.00
2022-12-29T06:04:24.328Z,1.00
2022-12-29T06:06:52.897Z,1.00
2022-12-29T06:09:28.160Z,1.00
2022-12-29T06:11:58.189Z,1.00
2022-12-29T06:14:26.915Z,1.00
2022-12-29T06:16:55.279Z,1.00
2022-12-29T06:19:24.059Z,1.00
2022-12-29T06:21:53.577Z,0.90
2022-12-29T06:24:22.341Z,0.90
2022-12-29T06:26:50.737Z,0.90
2022-12-29T06:29:21.686Z,0.90
2022-12-29T06:31:52.204Z,1.00
2022-12-29T06:34:20.652Z,1.00
2022-12-29T06:36:49.091Z,1.00
2022-12-29T06:39:17.599Z,1.00
2022-12-29T06:41:55.331Z,1.00
2022-12-29T06:44:38.646Z,1.00
2022-12-29T06:47:11.739Z,1.10
2022-12-29T06:49:40.208Z,1.10
2022-12-29T06:52:12.752Z,1.20
2022-12-29T06:54:41.719Z,1.20
2022-12-29T06:57:10.143Z,1.20
2022-12-29T06:59:39.759Z,1.30
2022-12-29T07:02:08.447Z,1.30
2022-12-29T07:04:36.925Z,1.30
2022-12-29T07:07:05.512Z,1.30
2022-12-29T07:09:33.902Z,1.30
2022-12-29T07:12:02.350Z,1.30
2022-12-29T07:14:30.724Z,1.40
2022-12-29T07:17:00.443Z,1.40
2022-12-29T07:19:28.875Z,1.40
2022-12-29T07:21:57.353Z,1.40
2022-12-29T07:24:26.694Z,1.50
2022-12-29T07:26:55.131Z,1.50
2022-12-29T07:29:23.755Z,1.50
2022-12-29T07:31:52.144Z,1.50
2022-12-29T07:34:21.989Z,1.50
2022-12-29T07:36:50.356Z,1.60
2022-12-29T07:39:18.699Z,1.60
2022-12-29T07:41:47.106Z,1.60
2022-12-29T07:44:19.803Z,1.70
2022-12-29T07:47:06.642Z,1.70
2022-12-29T07:49:36.548Z,1.70
2022-12-29T07:52:05.129Z,1.80
2022-12-29T07:54:33.489Z,1.80
2022-12-29T07:57:02.248Z,1.80
2022-12-29T07:59:31.609Z,1.90
2022-12-29T08:02:00.320Z,1.90
2022-12-29T08:04:28.973Z,2.00
2022-12-29T08:06:58.679Z,2.00
2022-12-29T08:09:27.065Z,2.00
2022-12-29T08:11:56.370Z,2.00
2022-12-29T08:14:24.744Z,2.10
2022-12-29T08:16:53.068Z,2.10
2022-12-29T08:19:21.399Z,2.20
2022-12-29T08:21:49.837Z,2.20
2022-12-29T08:24:19.398Z,2.30
2022-12-29T08:26:47.774Z,2.40
2022-12-29T08:29:16.088Z,2.50
2022-12-29T08:31:44.400Z,2.70
2022-12-29T08:34:12.931Z,3.00
2022-12-29T08:36:41.309Z,3.40
2022-12-29T08:39:09.682Z,3.80
2022-12-29T08:41:39.556Z,4.10
2022-12-29T08:44:08.039Z,4.40
2022-12-29T08:46:36.540Z,4.60
2022-12-29T08:49:04.985Z,4.80
2022-12-29T08:51:33.387Z,4.90
2022-12-29T08:54:01.890Z,4.90
2022-12-29T08:56:30.615Z,4.90
2022-12-29T08:59:02.722Z,4.90
2022-12-29T09:01:34.756Z,5.00
2022-12-29T09:04:15.069Z,5.00
2022-12-29T09:06:45.691Z,4.90
2022-12-29T09:09:14.578Z,4.80
2022-12-29T09:11:43.822Z,4.80
2022-12-29T09:14:13.749Z,4.60
2022-12-29T09:17:00.160Z,4.50
2022-12-29T09:19:28.568Z,4.40
2022-12-29T09:21:57.000Z,4.20
2022-12-29T09:24:25.370Z,4.10
2022-12-29T09:26:53.727Z,4.10
2022-12-29T09:29:23.504Z,4.00
2022-12-29T09:31:52.561Z,3.90
2022-12-29T09:34:21.000Z,3.80
2022-12-29T09:36:49.292Z,3.80
2022-12-29T09:39:17.669Z,3.70
2022-12-29T09:41:51.929Z,3.60
2022-12-29T09:44:28.197Z,3.60
2022-12-29T09:46:59.116Z,3.60
2022-12-29T09:49:35.166Z,3.50
2022-12-29T09:52:07.378Z,3.50
2022-12-29T09:54:48.188Z,3.50
2022-12-29T09:57:26.517Z,3.40
2022-12-29T10:00:00.331Z,3.40
2022-12-29T10:02:48.864Z,3.40
2022-12-29T10:05:29.205Z,3.30
2022-12-29T10:08:15.616Z,3.30
2022-12-29T10:10:53.019Z,3.30
2022-12-29T10:13:36.399Z,3.30
2022-12-29T10:16:14.893Z,3.30
2022-12-29T10:19:09.159Z,3.30
2022-12-29T10:21:49.920Z,3.40
2022-12-29T10:24:21.149Z,3.40
2022-12-29T10:26:53.266Z,3.40
2022-12-29T10:29:24.140Z,3.40
2022-12-29T10:32:02.019Z,3.40
2022-12-29T10:34:34.564Z,3.50
2022-12-29T10:37:07.333Z,3.50
2022-12-29T10:39:41.922Z,3.50
2022-12-29T10:42:16.918Z,3.60
2022-12-29T10:44:45.241Z,3.60
2022-12-29T10:47:21.447Z,3.70
2022-12-29T10:49:50.501Z,3.80
2022-12-29T10:52:22.217Z,3.80
2022-12-29T10:54:54.812Z,3.90
2022-12-29T10:57:29.454Z,4.00
2022-12-29T10:59:57.947Z,4.30
2022-12-29T11:02:45.716Z,4.60
2022-12-29T11:05:24.987Z,5.20
2022-12-29T11:07:57.428Z,5.80
2022-12-29T11:10:32.625Z,6.50
2022-12-29T11:13:03.741Z,7.10
2022-12-29T11:15:41.716Z,7.60
2022-12-29T11:18:23.974Z,8.20
2022-12-29T11:20:54.529Z,8.70
2022-12-29T11:23:33.432Z,9.10
2022-12-29T11:26:18.790Z,9.40
2022-12-29T11:28:49.517Z,9.70
2022-12-29T11:31:19.745Z,10.00
2022-12-29T11:33:49.530Z,10.20
2022-12-29T11:36:20.651Z,10.40
2022-12-29T11:38:52.234Z,10.50
2022-12-29T11:41:25.986Z,10.50
2022-12-29T11:43:57.381Z,10.60
2022-12-29T11:46:29.498Z,10.60
2022-12-29T11:49:01.903Z,10.70
2022-12-29T11:51:32.750Z,10.70
2022-12-29T11:54:04.459Z,10.80
2022-12-29T11:56:41.253Z,10.70
2022-12-29T11:59:42.920Z,10.60
2022-12-29T12:02:30.334Z,10.40
2022-12-29T12:05:06.869Z,10.30
2022-12-29T12:07:43.248Z,10.20
2022-12-29T12:10:22.191Z,10.10
2022-12-29T12:12:58.309Z,10.00
2022-12-29T12:15:31.346Z,10.00
2022-12-29T12:18:06.182Z,9.90
2022-12-29T12:20:43.726Z,9.90
2022-12-29T12:23:22.549Z,9.90
2022-12-29T12:25:58.805Z,10.00
2022-12-29T12:28:37.104Z,10.00
2022-12-29T12:31:13.612Z,10.00
2022-12-29T12:33:46.289Z,10.00
2022-12-29T12:36:34.320Z,9.90
2022-12-29T12:39:07.318Z,9.80
2022-12-29T12:41:47.383Z,9.70
2022-12-29T12:44:25.460Z,9.60
2022-12-29T12:47:24.460Z,9.70
2022-12-29T12:50:13.885Z,9.70
2022-12-29T12:53:08.746Z,9.80
2022-12-29T12:55:48.982Z,9.80
2022-12-29T12:58:27.423Z,9.90
2022-12-29T13:01:12.336Z,10.00
2022-12-29T13:03:54.631Z,10.00
2022-12-29T13:06:34.621Z,10.10
2022-12-29T13:09:31.130Z,10.10
2022-12-29T13:12:16.052Z,10.10
2022-12-29T13:14:55.794Z,10.10
2022-12-29T13:17:32.478Z,10.10
2022-12-29T13:20:11.400Z,10.00
2022-12-29T13:22:45.344Z,9.90
2022-12-29T13:25:29.713Z,9.90
2022-12-29T13:28:07.259Z,9.80
2022-12-29T13:30:40.980Z,9.80
2022-12-29T13:33:21.717Z,9.70
2022-12-29T13:36:01.556Z,9.70
2022-12-29T13:38:35.970Z,9.70
2022-12-29T13:41:10.376Z,9.70
2022-12-29T13:43:42.468Z,9.70
2022-12-29T13:46:15.327Z,9.70
2022-12-29T13:48:48.622Z,9.60
2022-12-29T13:51:22.698Z,9.50
2022-12-29T13:54:12.053Z,9.40
2022-12-29T13:56:45.815Z,9.20
2022-12-29T13:59:23.403Z,9.00
2022-12-29T14:01:59.793Z,8.70
2022-12-29T14:04:33.790Z,8.50
2022-12-29T14:07:05.038Z,8.20
2022-12-29T14:09:43.973Z,8.00
2022-12-29T14:12:33.464Z,7.70
2022-12-29T14:15:16.679Z,7.40
2022-12-29T14:17:46.067Z,7.20
2022-12-29T14:20:23.866Z,6.90
2022-12-29T14:23:00.169Z,6.70
2022-12-29T14:25:54.953Z,6.50
2022-12-29T14:28:28.648Z,6.30
2022-12-29T14:30:58.749Z,6.10
2022-12-29T14:33:29.690Z,5.90
2022-12-29T14:35:59.241Z,5.70
2022-12-29T14:38:32.568Z,5.50
2022-12-29T14:41:21.325Z,5.40
2022-12-29T14:44:04.912Z,5.20
2022-12-29T14:46:48.789Z,5.10
2022-12-29T14:49:20.917Z,4.90
2022-12-29T14:51:50.311Z,4.80
2022-12-29T14:54:47.472Z,4.70
2022-12-29T14:57:31.941Z,4.60
2022-12-29T15:00:07.956Z,4.50
2022-12-29T15:02:41.850Z,4.40
2022-12-29T15:05:36.284Z,4.30
2022-12-29T15:08:05.700Z,4.20
2022-12-29T15:10:41.939Z,4.10
2022-12-29T15:13:18.913Z,4.00
2022-12-29T15:15:49.897Z,3.90
2022-12-29T15:18:26.652Z,3.80
2022-12-29T15:20:57.967Z,3.80
2022-12-29T15:23:27.117Z,3.70
2022-12-29T15:25:58.168Z,3.70
2022-12-29T15:28:27.864Z,3.60
2022-12-29T15:31:03.390Z,3.50
2022-12-29T15:33:31.954Z,3.50
2022-12-29T15:36:05.687Z,3.50
2022-12-29T15:38:40.205Z,3.50
2022-12-29T15:41:15.602Z,3.40
2022-12-29T15:43:53.025Z,3.30
2022-12-29T15:46:22.774Z,3.30
2022-12-29T15:48:51.291Z,3.30
2022-12-29T15:51:22.409Z,3.20
2022-12-29T15:53:53.296Z,3.20
2022-12-29T15:56:21.829Z,3.20
2022-12-29T15:58:52.540Z,3.10
2022-12-29T16:01:29.935Z,3.10
2022-12-29T16:04:00.032Z,3.10
2022-12-29T16:06:34.230Z,3.10
2022-12-29T16:09:05.015Z,3.10
2022-12-29T16:11:37.825Z,3.10
2022-12-29T16:14:12.053Z,3.10
2022-12-29T16:16:43.701Z,3.10
2022-12-29T16:19:16.453Z,3.10
2022-12-29T16:21:45.475Z,3.10
2022-12-29T16:24:17.910Z,3.10
2022-12-29T16:26:51.787Z,3.20
2022-12-29T16:29:22.932Z,3.20
2022-12-29T16:32:01.565Z,3.20
2022-12-29T16:34:33.556Z,3.10
2022-12-29T16:37:03.878Z,3.20
2022-12-29T16:39:40.484Z,3.20
2022-12-29T16:42:37.914Z,3.20
2022-12-29T16:45:57.886Z,3.10
2022-12-29T16:48:29.149Z,3.10
2022-12-29T16:51:05.683Z,3.10
2022-12-29T16:53:37.677Z,3.00
2022-12-29T16:56:11.783Z,3.00
2022-12-29T16:58:42.723Z,3.00
2022-12-29T17:01:20.428Z,2.90
2022-12-29T17:03:54.022Z,2.90
2022-12-29T17:06:24.508Z,2.80
2022-12-29T17:08:53.837Z,2.80
2022-12-29T17:11:42.697Z,2.70
2022-12-29T17:14:22.524Z,2.70
2022-12-29T17:16:51.176Z,2.70
2022-12-29T17:19:25.277Z,2.60
2022-12-29T17:21:53.615Z,2.60
2022-12-29T17:24:22.128Z,2.50
2022-12-29T17:26:52.897Z,2.50
2022-12-29T17:29:31.117Z,2.50
2022-12-29T17:32:00.249Z,2.40
2022-12-29T17:34:30.036Z,2.40
2022-12-29T17:36:58.420Z,2.40
2022-12-29T17:39:26.735Z,2.30
2022-12-29T17:41:55.251Z,2.30
2022-12-29T17:44:26.424Z,2.40
2022-12-29T17:46:54.864Z,2.30
2022-12-29T17:49:23.135Z,2.30
2022-12-29T17:51:52.839Z,2.30
2022-12-29T17:54:23.132Z,2.30
2022-12-29T17:56:51.642Z,2.20
2022-12-29T17:59:20.743Z,2.20
2022-12-29T18:01:50.724Z,2.20
2022-12-29T18:04:22.552Z,2.20
2022-12-29T18:06:52.191Z,2.10
2022-12-29T18:09:22.735Z,2.10
2022-12-29T18:11:51.434Z,2.10
2022-12-29T18:14:19.793Z,2.10
2022-12-29T18:16:48.085Z,2.00
2022-12-29T18:19:16.337Z,2.00
2022-12-29T18:21:45.949Z,2.00
2022-12-29T18:24:16.816Z,2.00
2022-12-29T18:26:45.225Z,2.00
2022-12-29T18:29:13.560Z,1.90
2022-12-29T18:31:41.996Z,1.90
2022-12-29T18:34:15.938Z,1.90
2022-12-29T18:36:44.309Z,1.90
2022-12-29T18:39:13.046Z,1.90
2022-12-29T18:41:42.650Z,1.90
2022-12-29T18:44:13.832Z,1.90
2022-12-29T18:46:42.292Z,1.80
2022-12-29T18:49:10.696Z,1.80
2022-12-29T18:51:39.021Z,1.80
2022-12-29T18:54:07.379Z,1.80
2022-12-29T18:56:35.709Z,1.90
2022-12-29T18:59:05.329Z,1.90
2022-12-29T19:01:33.788Z,1.90
2022-12-29T19:04:02.319Z,1.90
2022-12-29T19:06:30.779Z,1.90
2022-12-29T19:08:59.213Z,1.90
2022-12-29T19:11:27.531Z,1.90
2022-12-29T19:13:55.834Z,1.90
2022-12-29T19:16:27.023Z,1.90
2022-12-29T19:19:09.089Z,1.90
2022-12-29T19:21:38.562Z,1.90
2022-12-29T19:24:07.615Z,1.90
2022-12-29T19:26:38.413Z,1.90
2022-12-29T19:29:08.437Z,1.90
2022-12-29T19:31:39.430Z,1.90
2022-12-29T19:34:07.939Z,1.90
2022-12-29T19:36:36.469Z,1.90
2022-12-29T19:39:04.971Z,1.90
2022-12-29T19:41:33.596Z,1.90
2022-12-29T19:44:01.935Z,1.90
2022-12-29T19:46:30.330Z,1.90
2022-12-29T19:49:01.239Z,1.90
2022-12-29T19:51:29.751Z,1.90
2022-12-29T19:53:58.642Z,1.90
2022-12-29T19:56:27.009Z,1.90
2022-12-29T19:58:57.505Z,1.90
2022-12-29T20:01:27.522Z,1.90
2022-12-29T20:03:55.988Z,1.90
2022-12-29T20:06:25.650Z,1.90
2022-12-29T20:08:55.802Z,1.90
2022-12-29T20:11:26.933Z,1.90
2022-12-29T20:13:55.190Z,1.90
2022-12-29T20:16:24.998Z,1.90
2022-12-29T20:18:55.472Z,1.90
2022-12-29T20:21:26.530Z,1.90
2022-12-29T20:23:56.443Z,1.80
2022-12-29T20:26:27.120Z,1.80
2022-12-29T20:28:58.725Z,1.80
2022-12-29T20:31:29.114Z,1.80
2022-12-29T20:33:57.765Z,1.80
2022-12-29T20:36:29.360Z,1.80
2022-12-29T20:38:59.733Z,1.80
2022-12-29T20:41:28.841Z,1.80
2022-12-29T20:43:57.239Z,1.70
2022-12-29T20:46:32.844Z,1.70
2022-12-29T20:49:05.626Z,1.70
2022-12-29T20:52:04.474Z,1.70
2022-12-29T20:54:24.489Z,1.70
2022-12-29T20:56:53.226Z,1.70
2022-12-29T20:59:29.739Z,1.70
2022-12-29T21:01:58.721Z,1.60
2022-12-29T21:04:27.677Z,1.70
2022-12-29T21:06:57.430Z,1.70
2022-12-29T21:09:25.808Z,1.60
2022-12-29T21:11:54.464Z,1.70
2022-12-29T21:14:22.820Z,1.70
2022-12-29T21:16:51.229Z,1.70
2022-12-29T21:19:19.570Z,1.70
2022-12-29T21:21:47.938Z,1.70
2022-12-29T21:24:19.762Z,1.70
2022-12-29T21:26:48.754Z,1.70
2022-12-29T21:29:17.107Z,1.70
2022-12-29T21:31:46.603Z,1.80
2022-12-29T21:34:15.082Z,1.70
2022-12-29T21:36:43.600Z,1.80
2022-12-29T21:39:12.823Z,1.80
2022-12-29T21:41:42.539Z,1.70
2022-12-29T21:44:28.268Z,1.80
2022-12-29T21:46:56.620Z,1.80
2022-12-29T21:49:26.339Z,1.80
2022-12-29T21:51:54.896Z,1.80
2022-12-29T21:54:42.972Z,1.70
2022-12-29T21:57:34.210Z,1.70
2022-12-29T22:00:20.510Z,1.70
2022-12-29T22:03:06.729Z,1.70
2022-12-29T22:05:52.910Z,1.70
2022-12-29T22:08:38.855Z,1.70
2022-12-29T22:11:26.892Z,1.60
2022-12-29T22:13:58.112Z,1.60
2022-12-29T22:16:26.946Z,1.60
2022-12-29T22:18:55.463Z,1.60
2022-12-29T22:21:23.839Z,1.60
2022-12-29T22:23:52.290Z,1.50
2022-12-29T22:26:20.797Z,1.50
2022-12-29T22:28:52.044Z,1.50
2022-12-29T22:31:29.044Z,1.50
2022-12-29T22:33:58.018Z,1.50
2022-12-29T22:36:27.374Z,1.50
2022-12-29T22:38:55.876Z,1.40
2022-12-29T22:41:24.700Z,1.50
2022-12-29T22:43:53.146Z,1.40
2022-12-29T22:46:21.688Z,1.40
2022-12-29T22:48:51.432Z,1.50
2022-12-29T22:51:19.908Z,1.50
2022-12-29T22:53:50.226Z,1.50
2022-12-29T22:56:18.815Z,1.50
2022-12-29T22:58:49.065Z,1.50
2022-12-29T23:01:19.343Z,1.50
2022-12-29T23:03:48.532Z,1.50
2022-12-29T23:06:19.234Z,1.60
2022-12-29T23:08:48.087Z,1.60
2022-12-29T23:11:16.441Z,1.60
2022-12-29T23:13:46.305Z,1.60
2022-12-29T23:16:15.957Z,1.60
2022-12-29T23:18:44.964Z,1.60
2022-12-29T23:21:13.742Z,1.60
2022-12-29T23:23:56.218Z,1.60
2022-12-29T23:26:26.587Z,1.70
2022-12-29T23:28:59.997Z,1.70
2022-12-29T23:31:29.855Z,1.70
2022-12-29T23:33:58.276Z,1.70
2022-12-29T23:36:27.321Z,1.70
2022-12-29T23:38:57.514Z,1.70
2022-12-29T23:41:26.888Z,1.70
2022-12-29T23:43:55.329Z,1.70
2022-12-29T23:46:25.757Z,1.70
2022-12-29T23:48:54.718Z,1.70
2022-12-29T23:51:23.126Z,1.70
2022-12-29T23:53:51.666Z,1.70
2022-12-29T23:56:23.639Z,1.70
2022-12-29T23:58:52.450Z,1.70
